createdAt,value
2022-11-29T00:01:23.883Z,45.75
2022-11-29T00:03:50.812Z,47.80
2022-11-29T00:06:18.821Z,51.25
2022-11-29T00:08:45.587Z,47.00
2022-11-29T00:11:35.705Z,51.50
2022-11-29T00:14:02.322Z,47.00
2022-11-29T00:16:28.812Z,47.00
2022-11-29T00:18:56.430Z,40.25
2022-11-29T00:21:22.999Z,44.60
2022-11-29T00:23:49.414Z,34.25
2022-11-29T00:26:15.827Z,34.00
2022-11-29T00:28:42.278Z,32.75
2022-11-29T00:31:15.874Z,41.20
2022-11-29T00:33:42.308Z,41.40
2022-11-29T00:36:08.861Z,40.50
2022-11-29T00:38:35.306Z,47.00
2022-11-29T00:41:01.755Z,45.25
2022-11-29T00:43:28.180Z,49.40
2022-11-29T00:45:54.654Z,39.75
2022-11-29T00:48:21.123Z,35.20
2022-11-29T00:50:47.541Z,34.75
2022-11-29T00:53:13.974Z,31.00
2022-11-29T00:55:40.363Z,28.40
2022-11-29T00:58:06.774Z,35.40
2022-11-29T01:00:33.316Z,33.00
2022-11-29T01:02:59.982Z,38.80
2022-11-29T01:05:26.521Z,42.75
2022-11-29T01:07:52.988Z,30.00
2022-11-29T01:10:19.535Z,41.75
2022-11-29T01:12:45.996Z,31.00
2022-11-29T01:15:12.577Z,35.00
2022-11-29T01:17:39.439Z,41.00
2022-11-29T01:20:07.055Z,30.40
2022-11-29T01:22:37.309Z,39.00
2022-11-29T01:25:04.063Z,35.40
2022-11-29T01:27:30.817Z,33.40
2022-11-29T01:29:57.238Z,28.25
2022-11-29T01:32:23.857Z,35.50
2022-11-29T01:34:50.269Z,39.50
2022-11-29T01:37:16.706Z,41.40
2022-11-29T01:39:43.184Z,39.00
2022-11-29T01:42:13.702Z,35.60
2022-11-29T01:44:40.106Z,44.00
2022-11-29T01:47:06.507Z,32.40
2022-11-29T01:49:35.723Z,38.00
2022-11-29T01:52:14.432Z,41.00
2022-11-29T01:54:46.952Z,42.20
2022-11-29T01:57:13.746Z,32.60
2022-11-29T01:59:46.487Z,36.00
2022-11-29T02:02:14.692Z,40.00
2022-11-29T02:04:43.412Z,31.50
2022-11-29T02:07:10.339Z,37.00
2022-11-29T02:09:36.779Z,32.50
2022-11-29T02:12:17.144Z,29.75
2022-11-29T02:15:02.349Z,33.00
2022-11-29T02:17:47.563Z,26.00
2022-11-29T02:20:23.192Z,33.60
2022-11-29T02:22:59.517Z,29.00
2022-11-29T02:25:44.438Z,36.00
2022-11-29T02:28:30.230Z,41.20
2022-11-29T02:31:05.781Z,30.50
2022-11-29T02:33:56.802Z,29.60
2022-11-29T02:36:41.772Z,31.25
2022-11-29T02:39:26.125Z,32.00
2022-11-29T02:41:55.565Z,38.75
2022-11-29T02:44:40.874Z,32.50
2022-11-29T02:47:10.313Z,30.00
2022-11-29T02:49:36.698Z,29.00
2022-11-29T02:52:10.726Z,31.00
2022-11-29T02:54:37.185Z,28.60
2022-11-29T02:57:22.172Z,29.00
2022-11-29T03:00:07.225Z,25.25
2022-11-29T03:02:33.666Z,29.75
2022-11-29T03:05:12.623Z,25.00
2022-11-29T03:07:57.696Z,27.60
2022-11-29T03:10:24.177Z,27.00
2022-11-29T03:12:52.910Z,32.40
2022-11-29T03:15:19.309Z,23.50
2022-11-29T03:17:45.689Z,29.60
2022-11-29T03:20:30.930Z,21.25
2022-11-29T03:22:57.333Z,24.20
2022-11-29T03:25:31.977Z,27.60
2022-11-29T03:27:58.353Z,28.00
2022-11-29T03:30:24.809Z,34.00
2022-11-29T03:33:05.165Z,37.50
2022-11-29T03:35:34.587Z,26.00
2022-11-29T03:38:13.026Z,31.00
2022-11-29T03:40:39.947Z,39.00
2022-11-29T03:43:14.185Z,25.40
2022-11-29T03:45:52.091Z,31.60
2022-11-29T03:48:29.431Z,39.33
2022-11-29T03:51:05.717Z,31.00
2022-11-29T03:53:35.974Z,29.40
2022-11-29T03:56:04.782Z,28.00
2022-11-29T03:58:39.669Z,36.00
2022-11-29T04:01:22.534Z,31.75
2022-11-29T04:03:49.028Z,34.00
2022-11-29T04:06:18.444Z,36.00
2022-11-29T04:09:03.819Z,39.60
2022-11-29T04:11:36.305Z,41.80
2022-11-29T04:14:19.363Z,34.00
2022-11-29T04:16:52.087Z,38.00
2022-11-29T04:19:24.518Z,32.00
2022-11-29T04:21:59.986Z,50.00
2022-11-29T04:24:41.758Z,55.75
2022-11-29T04:27:27.234Z,42.50
2022-11-29T04:30:01.806Z,45.60
2022-11-29T04:32:34.211Z,49.20
2022-11-29T04:35:11.562Z,56.75
2022-11-29T04:37:56.572Z,65.00
2022-11-29T04:40:38.319Z,59.25
2022-11-29T04:43:07.825Z,54.20
2022-11-29T04:45:37.309Z,47.80
2022-11-29T04:48:22.670Z,41.50
2022-11-29T04:51:07.890Z,40.00
2022-11-29T04:53:48.195Z,40.80
2022-11-29T04:56:14.635Z,37.60
2022-11-29T04:58:43.719Z,41.25
2022-11-29T05:01:13.074Z,40.00
2022-11-29T05:03:56.740Z,43.00
2022-11-29T05:06:27.825Z,48.00
2022-11-29T05:09:10.467Z,36.80
2022-11-29T05:11:37.014Z,45.50
2022-11-29T05:14:09.330Z,36.50
2022-11-29T05:16:46.600Z,42.40
2022-11-29T05:19:31.672Z,41.40
2022-11-29T05:22:07.036Z,47.20
2022-11-29T05:24:33.466Z,42.00
2022-11-29T05:27:07.406Z,35.20
2022-11-29T05:29:46.231Z,30.50
2022-11-29T05:32:21.652Z,40.60
2022-11-29T05:34:51.312Z,31.00
2022-11-29T05:37:37.010Z,30.20
2022-11-29T05:40:19.474Z,30.60
2022-11-29T05:42:58.133Z,22.00
2022-11-29T05:45:47.054Z,19.75
2022-11-29T05:48:22.474Z,22.00
2022-11-29T05:51:02.931Z,22.00
2022-11-29T05:53:34.302Z,15.00
2022-11-29T05:56:00.675Z,22.00
2022-11-29T05:58:39.198Z,19.00
2022-11-29T06:01:20.319Z,17.50
2022-11-29T06:04:02.223Z,19.50
2022-11-29T06:06:39.741Z,18.20
2022-11-29T06:09:09.009Z,13.60
2022-11-29T06:11:35.443Z,17.00
2022-11-29T06:14:28.086Z,16.00
2022-11-29T06:17:01.880Z,16.20
2022-11-29T06:19:42.624Z,18.00
2022-11-29T06:22:23.629Z,15.75
2022-11-29T06:24:56.722Z,17.00
2022-11-29T06:27:30.043Z,17.25
2022-11-29T06:30:22.911Z,16.50
2022-11-29T06:33:08.545Z,20.00
2022-11-29T06:35:47.889Z,30.00
2022-11-29T06:38:14.481Z,17.00
2022-11-29T06:40:41.000Z,23.25
2022-11-29T06:43:07.537Z,15.40
2022-11-29T06:45:34.037Z,14.75
2022-11-29T06:48:07.225Z,18.00
2022-11-29T06:50:37.709Z,18.75
2022-11-29T06:53:10.487Z,16.60
2022-11-29T06:55:45.234Z,16.25
2022-11-29T06:58:36.404Z,14.00
2022-11-29T07:01:10.303Z,21.00
2022-11-29T07:03:48.729Z,14.60
2022-11-29T07:06:22.697Z,17.20
2022-11-29T07:08:54.144Z,12.00
2022-11-29T07:11:20.799Z,16.25
2022-11-29T07:13:47.535Z,16.00
2022-11-29T07:16:14.050Z,17.80
2022-11-29T07:18:47.180Z,18.60
2022-11-29T07:21:39.689Z,22.20
2022-11-29T07:24:15.342Z,19.50
2022-11-29T07:26:59.325Z,19.00
2022-11-29T07:29:31.939Z,17.00
2022-11-29T07:32:21.082Z,11.40
2022-11-29T07:34:53.672Z,11.00
2022-11-29T07:37:23.191Z,12.00
2022-11-29T07:40:07.951Z,12.80
2022-11-29T07:42:52.874Z,14.00
2022-11-29T07:45:25.448Z,17.00
2022-11-29T07:47:52.165Z,16.25
2022-11-29T07:50:18.986Z,12.00
2022-11-29T07:52:45.735Z,11.75
2022-11-29T07:55:18.876Z,10.60
2022-11-29T07:57:45.735Z,13.80
2022-11-29T08:00:12.501Z,11.00
2022-11-29T08:02:39.051Z,14.60
2022-11-29T08:05:05.995Z,13.75
2022-11-29T08:07:34.550Z,16.25
2022-11-29T08:10:01.201Z,12.00
2022-11-29T08:12:27.622Z,11.00
2022-11-29T08:14:54.028Z,8.00
2022-11-29T08:17:20.516Z,14.00
2022-11-29T08:19:46.926Z,12.00
2022-11-29T08:22:13.402Z,9.00
2022-11-29T08:24:39.879Z,12.00
2022-11-29T08:27:06.326Z,12.60
2022-11-29T08:29:32.805Z,18.00
2022-11-29T08:31:59.277Z,20.00
2022-11-29T08:34:25.944Z,20.75
2022-11-29T08:36:54.638Z,14.25
2022-11-29T08:39:21.169Z,17.00
2022-11-29T08:41:48.635Z,11.00
2022-11-29T08:44:15.163Z,13.80
2022-11-29T08:47:00.185Z,21.20
2022-11-29T08:49:26.640Z,17.80
2022-11-29T08:52:15.771Z,16.00
2022-11-29T08:54:42.413Z,19.40
2022-11-29T08:59:55.553Z,15.00
2022-11-29T09:02:22.035Z,18.50
2022-11-29T09:04:48.510Z,13.00
2022-11-29T09:07:16.258Z,14.60
2022-11-29T09:09:42.683Z,10.00
2022-11-29T09:12:09.107Z,15.50
2022-11-29T09:14:35.530Z,14.50
2022-11-29T09:17:02.030Z,14.00
2022-11-29T09:19:28.534Z,15.00
2022-11-29T09:21:55.099Z,13.40
2022-11-29T09:24:21.586Z,16.00
2022-11-29T09:26:48.433Z,11.60
2022-11-29T09:29:16.185Z,15.00
2022-11-29T09:31:45.188Z,11.25
2022-11-29T09:34:15.626Z,8.75
2022-11-29T09:36:44.129Z,10.00
2022-11-29T09:39:12.395Z,10.40
2022-11-29T09:41:48.386Z,14.60
2022-11-29T09:44:24.912Z,5.00
2022-11-29T09:47:10.172Z,11.00
2022-11-29T09:49:36.566Z,11.60
2022-11-29T09:52:04.047Z,9.50
2022-11-29T09:54:33.249Z,8.00
2022-11-29T09:56:59.938Z,9.50
2022-11-29T09:59:27.493Z,6.00
2022-11-29T10:02:19.694Z,7.00
2022-11-29T10:04:54.028Z,6.75
2022-11-29T10:07:23.940Z,7.00
2022-11-29T10:09:52.989Z,8.80
2022-11-29T10:12:19.583Z,5.75
2022-11-29T10:14:49.461Z,7.75
2022-11-29T10:17:27.889Z,6.00
2022-11-29T10:19:57.568Z,7.00
2022-11-29T10:22:36.363Z,3.60
2022-11-29T10:25:03.264Z,6.50
2022-11-29T10:27:29.940Z,5.00
2022-11-29T10:29:59.376Z,5.40
2022-11-29T10:32:25.983Z,5.00
2022-11-29T10:34:52.401Z,5.75
2022-11-29T10:37:19.909Z,4.25
2022-11-29T10:39:54.921Z,12.50
2022-11-29T10:42:41.124Z,17.80
2022-11-29T10:45:13.646Z,3.40
2022-11-29T10:47:40.071Z,6.25
2022-11-29T10:50:06.804Z,9.00
2022-11-29T10:52:33.892Z,6.00
2022-11-29T10:55:00.909Z,10.40
2022-11-29T10:57:27.450Z,8.20
2022-11-29T11:00:01.066Z,7.60
2022-11-29T11:02:28.036Z,7.40
2022-11-29T11:04:54.586Z,6.00
2022-11-29T11:07:23.776Z,5.00
2022-11-29T11:09:51.991Z,6.00
2022-11-29T11:12:20.447Z,7.60
2022-11-29T11:14:47.369Z,5.00
2022-11-29T11:17:26.460Z,6.00
2022-11-29T11:19:57.233Z,4.33
2022-11-29T11:22:24.675Z,4.40
2022-11-29T11:24:59.807Z,5.00
2022-11-29T11:27:44.356Z,5.50
2022-11-29T11:30:27.625Z,5.00
2022-11-29T11:33:26.360Z,5.25
2022-11-29T11:36:08.110Z,3.25
2022-11-29T11:38:35.570Z,4.00
2022-11-29T11:41:17.000Z,1.50
2022-11-29T11:43:50.302Z,3.40
2022-11-29T11:46:18.277Z,3.40
2022-11-29T11:48:44.954Z,2.25
2022-11-29T11:51:21.351Z,4.00
2022-11-29T11:53:51.032Z,2.00
2022-11-29T11:56:18.200Z,1.00
2022-11-29T11:58:44.599Z,1.60
2022-11-29T12:01:30.700Z,1.00
2022-11-29T12:04:15.628Z,2.00
2022-11-29T12:06:46.382Z,5.00
2022-11-29T12:09:19.464Z,5.00
2022-11-29T12:11:45.871Z,2.00
2022-11-29T12:14:18.452Z,4.50
2022-11-29T12:16:45.398Z,1.60
2022-11-29T12:19:19.092Z,3.00
2022-11-29T12:21:47.579Z,2.00
2022-11-29T12:24:20.235Z,1.00
2022-11-29T12:27:02.858Z,2.00
2022-11-29T12:29:32.309Z,1.00
2022-11-29T12:32:14.877Z,1.80
2022-11-29T12:34:43.183Z,3.00
2022-11-29T12:37:12.896Z,1.00
2022-11-29T12:39:39.315Z,2.00
2022-11-29T12:42:23.361Z,1.00
2022-11-29T12:44:55.930Z,3.00
2022-11-29T12:47:36.093Z,1.60
2022-11-29T12:50:21.522Z,2.00
2022-11-29T12:53:03.257Z,2.50
2022-11-29T12:55:38.249Z,3.00
2022-11-29T12:58:14.194Z,5.00
2022-11-29T13:01:06.723Z,2.60
2022-11-29T13:03:33.121Z,4.00
2022-11-29T13:06:22.899Z,6.00
2022-11-29T13:09:01.666Z,5.40
2022-11-29T13:11:36.350Z,26.75
2022-11-29T13:14:40.975Z,32.50
2022-11-29T13:17:05.752Z,30.60
2022-11-29T13:19:38.450Z,13.60
2022-11-29T13:22:11.089Z,14.60
2022-11-29T13:24:43.372Z,11.00
2022-11-29T13:27:14.728Z,33.00
2022-11-29T13:29:41.223Z,25.50
2022-11-29T13:32:14.414Z,15.33
2022-11-29T13:34:47.376Z,16.40
2022-11-29T13:37:27.119Z,27.40
2022-11-29T13:39:59.455Z,15.00
2022-11-29T13:42:52.329Z,8.20
2022-11-29T13:45:18.795Z,15.20
2022-11-29T13:47:53.044Z,23.40
2022-11-29T13:50:38.908Z,24.60
2022-11-29T13:53:16.563Z,8.75
2022-11-29T13:55:48.048Z,5.60
2022-11-29T13:58:17.821Z,8.75
2022-11-29T14:00:44.657Z,42.80
2022-11-29T14:03:20.399Z,8.20
2022-11-29T14:05:48.250Z,7.40
2022-11-29T14:08:55.102Z,6.20
2022-11-29T14:11:28.054Z,6.00
2022-11-29T14:14:01.111Z,4.00
2022-11-29T14:16:33.900Z,4.00
2022-11-29T14:19:03.654Z,6.00
2022-11-29T14:21:50.318Z,6.75
2022-11-29T14:24:39.244Z,4.00
2022-11-29T14:27:14.544Z,8.00
2022-11-29T14:29:50.170Z,5.40
2022-11-29T14:32:39.283Z,5.00
2022-11-29T14:35:09.245Z,17.00
2022-11-29T14:37:35.677Z,20.60
2022-11-29T14:40:04.311Z,50.00
2022-11-29T14:42:31.189Z,43.25
2022-11-29T14:45:01.044Z,19.50
2022-11-29T14:47:31.463Z,45.75
2022-11-29T14:49:59.537Z,23.00
2022-11-29T14:52:25.988Z,7.00
2022-11-29T14:55:01.671Z,25.00
2022-11-29T14:57:46.683Z,17.75
2022-11-29T15:00:14.514Z,15.00
2022-11-29T15:02:47.942Z,22.00
2022-11-29T15:05:19.582Z,9.60
2022-11-29T15:07:51.280Z,14.00
2022-11-29T15:10:19.445Z,14.00
2022-11-29T15:12:47.271Z,18.50
2022-11-29T15:15:24.129Z,9.33
2022-11-29T15:17:56.608Z,10.00
2022-11-29T15:20:42.236Z,16.00
2022-11-29T15:23:11.869Z,14.00
2022-11-29T15:25:45.724Z,10.40
2022-11-29T15:28:25.581Z,13.50
2022-11-29T15:31:08.856Z,14.00
2022-11-29T15:33:42.356Z,13.25
2022-11-29T15:36:26.719Z,9.75
2022-11-29T15:38:54.285Z,8.60
2022-11-29T15:41:20.694Z,6.40
2022-11-29T15:43:52.530Z,10.00
2022-11-29T15:46:19.832Z,10.00
2022-11-29T15:48:46.350Z,6.60
2022-11-29T15:51:30.602Z,9.20
2022-11-29T15:54:12.086Z,7.20
2022-11-29T15:56:45.747Z,9.20
2022-11-29T15:59:18.040Z,14.40
2022-11-29T16:01:45.785Z,8.50
2022-11-29T16:04:17.693Z,14.75
2022-11-29T16:06:44.358Z,15.00
2022-11-29T16:09:16.549Z,13.50
2022-11-29T16:11:43.553Z,6.00
2022-11-29T16:14:14.841Z,14.00
2022-11-29T16:16:42.717Z,11.00
2022-11-29T16:19:10.873Z,8.00
2022-11-29T16:21:37.390Z,10.50
2022-11-29T16:24:14.240Z,9.60
2022-11-29T16:26:44.148Z,11.00
2022-11-29T16:29:21.805Z,13.00
2022-11-29T16:31:48.302Z,19.60
2022-11-29T16:34:27.185Z,12.80
2022-11-29T16:37:07.299Z,8.00
2022-11-29T16:39:34.515Z,9.80
2022-11-29T16:42:02.383Z,10.80
2022-11-29T16:44:49.986Z,15.40
2022-11-29T16:47:22.617Z,15.25
2022-11-29T16:50:01.435Z,10.00
2022-11-29T16:52:27.942Z,9.00
2022-11-29T16:54:54.355Z,7.00
2022-11-29T16:57:21.264Z,12.80
2022-11-29T16:59:47.839Z,11.60
2022-11-29T17:02:14.976Z,11.25
2022-11-29T17:04:41.761Z,13.50
2022-11-29T17:07:09.239Z,5.60
2022-11-29T17:09:37.981Z,13.00
2022-11-29T17:12:04.501Z,8.25
2022-11-29T17:14:31.653Z,9.00
2022-11-29T17:17:01.003Z,9.75
2022-11-29T17:19:28.778Z,12.50
2022-11-29T17:21:55.187Z,8.25
2022-11-29T17:24:22.455Z,12.33
2022-11-29T17:26:49.301Z,10.00
2022-11-29T17:29:16.609Z,39.50
2022-11-29T17:31:44.122Z,39.00
2022-11-29T17:34:10.802Z,14.00
2022-11-29T17:36:37.263Z,36.00
2022-11-29T17:39:04.512Z,18.60
2022-11-29T17:41:32.579Z,38.80
2022-11-29T17:43:59.168Z,45.25
2022-11-29T17:46:26.728Z,40.60
2022-11-29T17:48:53.497Z,50.60
2022-11-29T17:51:49.980Z,36.25
2022-11-29T17:54:08.231Z,39.00
2022-11-29T17:56:34.656Z,27.60
2022-11-29T17:59:01.915Z,41.75
2022-11-29T18:01:29.789Z,33.50
2022-11-29T18:03:57.452Z,39.00
2022-11-29T18:06:25.120Z,24.00
2022-11-29T18:08:53.860Z,33.20
2022-11-29T18:11:21.606Z,21.75
2022-11-29T18:13:48.537Z,23.00
2022-11-29T18:16:19.964Z,22.67
2022-11-29T18:18:46.850Z,14.00
2022-11-29T18:21:14.259Z,28.75
2022-11-29T18:23:42.130Z,27.25
2022-11-29T18:26:11.361Z,21.75
2022-11-29T18:28:38.642Z,14.60
2022-11-29T18:31:14.201Z,14.20
2022-11-29T18:33:41.377Z,24.50
2022-11-29T18:36:10.992Z,26.00
2022-11-29T18:38:37.790Z,15.20
2022-11-29T18:41:07.867Z,40.75
2022-11-29T18:43:34.469Z,29.75
2022-11-29T18:46:32.133Z,31.60
2022-11-29T18:49:02.486Z,27.25
2022-11-29T18:51:29.757Z,21.20
2022-11-29T18:53:56.928Z,64.00
2022-11-29T18:56:24.471Z,34.20
2022-11-29T18:58:58.859Z,39.80
2022-11-29T19:01:26.540Z,45.50
2022-11-29T19:03:53.821Z,38.25
2022-11-29T19:06:21.566Z,50.80
2022-11-29T19:08:48.038Z,40.50
2022-11-29T19:11:16.349Z,41.25
2022-11-29T19:13:43.241Z,18.40
2022-11-29T19:16:13.639Z,49.50
2022-11-29T19:18:40.366Z,34.25
2022-11-29T19:21:07.515Z,29.00
2022-11-29T19:23:34.317Z,26.00
2022-11-29T19:26:08.228Z,27.50
2022-11-29T19:28:37.888Z,30.00
2022-11-29T19:31:07.389Z,32.80
2022-11-29T19:33:34.486Z,26.50
2022-11-29T19:36:07.713Z,27.25
2022-11-29T19:38:37.747Z,41.40
2022-11-29T19:41:08.161Z,39.60
2022-11-29T19:43:34.718Z,47.00
2022-11-29T19:46:06.331Z,59.50
2022-11-29T19:48:32.835Z,49.00
2022-11-29T19:51:02.297Z,46.25
2022-11-29T19:53:29.154Z,40.00
2022-11-29T19:55:55.568Z,32.50
2022-11-29T19:58:22.171Z,25.50
2022-11-29T20:00:48.601Z,30.00
2022-11-29T20:03:15.039Z,33.40
2022-11-29T20:05:41.564Z,32.75
2022-11-29T20:08:07.996Z,32.75
2022-11-29T20:10:34.462Z,16.00
2022-11-29T20:13:00.960Z,17.00
2022-11-29T20:15:27.489Z,18.00
2022-11-29T20:17:54.108Z,13.00
2022-11-29T20:20:21.015Z,17.00
2022-11-29T20:22:47.550Z,14.60
2022-11-29T20:25:14.025Z,28.00
2022-11-29T20:27:40.648Z,29.60
2022-11-29T20:30:07.808Z,17.50
2022-11-29T20:32:34.962Z,36.00
2022-11-29T20:35:03.688Z,20.00
2022-11-29T20:37:49.586Z,17.20
2022-11-29T20:40:19.407Z,13.00
2022-11-29T20:42:58.417Z,21.75
2022-11-29T20:45:25.632Z,17.80
2022-11-29T20:47:55.562Z,11.00
2022-11-29T20:50:24.147Z,17.50
2022-11-29T20:52:57.005Z,18.00
2022-11-29T20:55:23.828Z,17.20
2022-11-29T20:57:50.572Z,18.60
2022-11-29T21:00:18.163Z,20.00
2022-11-29T21:02:44.707Z,16.00
2022-11-29T21:05:11.218Z,18.00
2022-11-29T21:07:37.660Z,19.25
2022-11-29T21:10:04.587Z,18.00
2022-11-29T21:12:31.271Z,14.50
2022-11-29T21:14:58.073Z,17.20
2022-11-29T21:17:28.809Z,14.00
2022-11-29T21:19:59.779Z,16.00
2022-11-29T21:22:38.181Z,13.40
2022-11-29T21:25:10.056Z,13.25
2022-11-29T21:27:36.683Z,13.00
2022-11-29T21:30:05.679Z,13.00
2022-11-29T21:32:32.850Z,11.20
2022-11-29T21:34:59.449Z,15.00
2022-11-29T21:37:27.640Z,12.50
2022-11-29T21:39:55.048Z,11.00
2022-11-29T21:42:21.596Z,12.40
2022-11-29T21:44:48.220Z,11.60
2022-11-29T21:47:15.002Z,14.00
2022-11-29T21:49:41.442Z,18.00
2022-11-29T21:52:07.865Z,10.40
2022-11-29T21:54:34.495Z,9.50
2022-11-29T21:57:01.719Z,14.00
2022-11-29T21:59:28.173Z,11.75
2022-11-29T22:01:54.915Z,9.75
2022-11-29T22:04:21.818Z,14.25
2022-11-29T22:06:48.294Z,12.00
2022-11-29T22:09:14.748Z,16.80
2022-11-29T22:11:41.225Z,16.50
2022-11-29T22:14:14.516Z,20.00
2022-11-29T22:16:43.940Z,14.00
2022-11-29T22:19:14.133Z,16.25
2022-11-29T22:21:42.115Z,12.00
2022-11-29T22:24:09.053Z,19.00
2022-11-29T22:26:35.848Z,13.00
2022-11-29T22:29:02.280Z,15.00
2022-11-29T22:31:28.803Z,12.40
2022-11-29T22:33:55.791Z,24.00
2022-11-29T22:36:22.575Z,32.50
2022-11-29T22:38:49.034Z,42.75
2022-11-29T22:41:16.333Z,38.60
2022-11-29T22:43:42.839Z,29.40
2022-11-29T22:46:13.839Z,28.00
2022-11-29T22:48:40.976Z,32.00
2022-11-29T22:51:08.843Z,28.25
2022-11-29T22:53:36.281Z,24.50
2022-11-29T22:56:04.122Z,24.00
2022-11-29T22:58:30.942Z,27.40
2022-11-29T23:01:23.802Z,33.80
2022-11-29T23:03:54.772Z,44.80
2022-11-29T23:06:22.789Z,59.50
2022-11-29T23:08:49.912Z,60.00
2022-11-29T23:11:18.205Z,62.40
2022-11-29T23:13:44.968Z,76.00
2022-11-29T23:16:14.909Z,72.00
2022-11-29T23:18:42.427Z,58.80
2022-11-29T23:21:10.561Z,56.25
2022-11-29T23:23:37.315Z,58.60
2022-11-29T23:26:04.629Z,63.00
2022-11-29T23:28:31.088Z,69.60
2022-11-29T23:30:58.648Z,74.00
2022-11-29T23:33:25.565Z,58.25
2022-11-29T23:35:58.971Z,53.00
2022-11-29T23:38:25.394Z,47.20
2022-11-29T23:40:51.801Z,49.20
2022-11-29T23:43:18.250Z,64.50
2022-11-29T23:45:44.662Z,78.40
2022-11-29T23:48:11.122Z,85.50
2022-11-29T23:50:37.541Z,82.50
2022-11-29T23:53:03.946Z,78.67
2022-11-29T23:55:30.544Z,71.50
2022-11-29T23:57:59.994Z,58.00
